sensor_id;sensor_type;location;lat;lon;timestamp;P1;durP1;ratioP1;P2;durP2;ratioP2
27869;SDS011;15225;50.730;4.244;2023-11-21T15:10:28;19.00;;;9.43;;
27869;SDS011;15225;50.730;4.244;2023-11-21T15:13:10;24.20;;;9.50;;
27869;SDS011;15225;50.730;4.244;2023-11-21T15:15:50;17.58;;;10.32;;
27869;SDS011;15225;50.730;4.244;2023-11-21T15:18:32;12.90;;;9.35;;
27869;SDS011;15225;50.730;4.244;2023-11-21T15:21:02;12.32;;;8.05;;
27869;SDS011;15225;50.730;4.244;2023-11-21T15:23:29;16.40;;;9.30;;
27869;SDS011;15225;50.730;4.244;2023-11-21T15:25:59;15.13;;;8.73;;
27869;SDS011;15225;50.730;4.244;2023-11-21T15:28:30;12.93;;;7.70;;
27869;SDS011;15225;50.730;4.244;2023-11-21T15:31:03;12.32;;;8.30;;
27869;SDS011;15225;50.730;4.244;2023-11-21T15:33:29;11.45;;;6.88;;
27869;SDS011;15225;50.730;4.244;2023-11-21T15:36:13;9.55;;;6.30;;
27869;SDS011;15225;50.730;4.244;2023-11-21T15:39:00;8.00;;;6.07;;
27869;SDS011;15225;50.730;4.244;2023-11-21T15:41:33;9.68;;;5.63;;
27869;SDS011;15225;50.730;4.244;2023-11-21T15:44:26;12.25;;;6.53;;
27869;SDS011;15225;50.730;4.244;2023-11-21T15:46:52;8.13;;;6.03;;
27869;SDS011;15225;50.730;4.244;2023-11-21T15:49:22;11.95;;;5.60;;
27869;SDS011;15225;50.730;4.244;2023-11-21T15:51:49;7.03;;;5.75;;
27869;SDS011;15225;50.730;4.244;2023-11-21T15:54:26;12.50;;;5.90;;
27869;SDS011;15225;50.730;4.244;2023-11-21T15:56:53;11.60;;;6.13;;
27869;SDS011;15225;50.730;4.244;2023-11-21T15:59:24;9.88;;;5.57;;
27869;SDS011;15225;50.730;4.244;2023-11-21T16:01:57;8.55;;;5.30;;
27869;SDS011;15225;50.730;4.244;2023-11-21T16:04:23;9.82;;;5.28;;
27869;SDS011;15225;50.730;4.244;2023-11-21T16:06:51;7.07;;;5.40;;
27869;SDS011;15225;50.730;4.244;2023-11-21T16:09:18;9.23;;;6.60;;
27869;SDS011;15225;50.730;4.244;2023-11-21T16:11:55;8.70;;;5.70;;
27869;SDS011;15225;50.730;4.244;2023-11-21T16:14:27;9.77;;;5.75;;
27869;SDS011;15225;50.730;4.244;2023-11-21T16:17:14;9.63;;;5.60;;
27869;SDS011;15225;50.730;4.244;2023-11-21T16:19:42;7.88;;;5.60;;
27869;SDS011;15225;50.730;4.244;2023-11-21T16:22:08;8.27;;;6.13;;
27869;SDS011;15225;50.730;4.244;2023-11-21T16:26:41;13.85;;;6.80;;
27869;SDS011;15225;50.730;4.244;2023-11-21T16:29:10;11.18;;;6.80;;
27869;SDS011;15225;50.730;4.244;2023-11-21T16:31:37;9.57;;;6.22;;
27869;SDS011;15225;50.730;4.244;2023-11-21T16:34:10;12.00;;;6.80;;
27869;SDS011;15225;50.730;4.244;2023-11-21T16:36:41;14.32;;;7.40;;
27869;SDS011;15225;50.730;4.244;2023-11-21T16:39:08;10.13;;;7.65;;
27869;SDS011;15225;50.730;4.244;2023-11-21T16:41:37;20.00;;;8.32;;
27869;SDS011;15225;50.730;4.244;2023-11-21T16:44:03;11.18;;;7.32;;
27869;SDS011;15225;50.730;4.244;2023-11-21T16:46:30;13.48;;;8.43;;
27869;SDS011;15225;50.730;4.244;2023-11-21T16:48:56;16.27;;;7.95;;
27869;SDS011;15225;50.730;4.244;2023-11-21T16:51:21;14.45;;;8.25;;
27869;SDS011;15225;50.730;4.244;2023-11-21T16:53:47;11.02;;;8.30;;
27869;SDS011;15225;50.730;4.244;2023-11-21T16:56:13;11.80;;;8.05;;
27869;SDS011;15225;50.730;4.244;2023-11-21T16:58:39;15.43;;;7.95;;
27869;SDS011;15225;50.730;4.244;2023-11-21T17:01:04;14.13;;;9.13;;
27869;SDS011;15225;50.730;4.244;2023-11-21T17:03:33;11.40;;;8.45;;
27869;SDS011;15225;50.730;4.244;2023-11-21T17:06:00;10.90;;;7.75;;
27869;SDS011;15225;50.730;4.244;2023-11-21T17:08:30;10.55;;;7.55;;
27869;SDS011;15225;50.730;4.244;2023-11-21T17:10:56;11.45;;;7.78;;
27869;SDS011;15225;50.730;4.244;2023-11-21T17:13:22;14.30;;;8.70;;
27869;SDS011;15225;50.730;4.244;2023-11-21T17:15:48;13.43;;;7.90;;
27869;SDS011;15225;50.730;4.244;2023-11-21T17:18:13;11.05;;;7.72;;
27869;SDS011;15225;50.730;4.244;2023-11-21T17:20:39;11.20;;;7.10;;
27869;SDS011;15225;50.730;4.244;2023-11-21T17:23:06;10.18;;;7.63;;
27869;SDS011;15225;50.730;4.244;2023-11-21T17:25:33;13.98;;;8.30;;
27869;SDS011;15225;50.730;4.244;2023-11-21T17:28:04;9.32;;;6.78;;
27869;SDS011;15225;50.730;4.244;2023-11-21T17:30:29;11.90;;;6.88;;
27869;SDS011;15225;50.730;4.244;2023-11-21T17:32:56;11.07;;;7.30;;
27869;SDS011;15225;50.730;4.244;2023-11-21T17:35:21;10.50;;;7.00;;
27869;SDS011;15225;50.730;4.244;2023-11-21T17:37:47;15.55;;;7.05;;
27869;SDS011;15225;50.730;4.244;2023-11-21T17:40:13;9.50;;;6.90;;
27869;SDS011;15225;50.730;4.244;2023-11-21T17:42:40;12.15;;;7.53;;
27869;SDS011;15225;50.730;4.244;2023-11-21T17:45:06;12.10;;;6.93;;
27869;SDS011;15225;50.730;4.244;2023-11-21T17:47:32;10.05;;;7.10;;
27869;SDS011;15225;50.730;4.244;2023-11-21T17:49:58;12.55;;;6.50;;
27869;SDS011;15225;50.730;4.244;2023-11-21T17:52:24;9.63;;;6.70;;
27869;SDS011;15225;50.730;4.244;2023-11-21T17:54:50;11.90;;;7.43;;
27869;SDS011;15225;50.730;4.244;2023-11-21T17:57:16;9.38;;;7.10;;
27869;SDS011;15225;50.730;4.244;2023-11-21T17:59:42;12.48;;;7.18;;
27869;SDS011;15225;50.730;4.244;2023-11-21T18:02:08;8.95;;;6.90;;
27869;SDS011;15225;50.730;4.244;2023-11-21T18:04:34;9.75;;;6.50;;
27869;SDS011;15225;50.730;4.244;2023-11-21T18:07:03;10.30;;;7.82;;
27869;SDS011;15225;50.730;4.244;2023-11-21T18:09:32;10.70;;;7.05;;
27869;SDS011;15225;50.730;4.244;2023-11-21T18:11:59;10.90;;;7.85;;
27869;SDS011;15225;50.730;4.244;2023-11-21T18:14:27;10.30;;;7.63;;
27869;SDS011;15225;50.730;4.244;2023-11-21T18:16:54;11.82;;;7.20;;
27869;SDS011;15225;50.730;4.244;2023-11-21T18:19:20;12.00;;;8.25;;
27869;SDS011;15225;50.730;4.244;2023-11-21T18:21:46;12.65;;;8.10;;
27869;SDS011;15225;50.730;4.244;2023-11-21T18:24:12;13.30;;;8.82;;
27869;SDS011;15225;50.730;4.244;2023-11-21T18:26:38;12.40;;;8.65;;
27869;SDS011;15225;50.730;4.244;2023-11-21T18:29:04;12.88;;;9.75;;
27869;SDS011;15225;50.730;4.244;2023-11-21T18:31:29;15.88;;;10.55;;
27869;SDS011;15225;50.730;4.244;2023-11-21T18:33:57;16.42;;;12.15;;
27869;SDS011;15225;50.730;4.244;2023-11-21T18:36:22;15.60;;;11.20;;
27869;SDS011;15225;50.730;4.244;2023-11-21T18:38:48;17.73;;;12.15;;
27869;SDS011;15225;50.730;4.244;2023-11-21T18:41:21;17.65;;;12.00;;
27869;SDS011;15225;50.730;4.244;2023-11-21T18:43:47;16.90;;;12.43;;
27869;SDS011;15225;50.730;4.244;2023-11-21T18:46:14;21.05;;;12.95;;
27869;SDS011;15225;50.730;4.244;2023-11-21T18:48:39;19.13;;;13.57;;
27869;SDS011;15225;50.730;4.244;2023-11-21T18:51:07;19.10;;;13.95;;
27869;SDS011;15225;50.730;4.244;2023-11-21T18:53:33;18.52;;;13.50;;
27869;SDS011;15225;50.730;4.244;2023-11-21T18:56:00;19.55;;;14.40;;
27869;SDS011;15225;50.730;4.244;2023-11-21T18:58:26;20.02;;;13.68;;
27869;SDS011;15225;50.730;4.244;2023-11-21T19:00:53;23.13;;;13.77;;
27869;SDS011;15225;50.730;4.244;2023-11-21T19:03:18;17.48;;;13.13;;
27869;SDS011;15225;50.730;4.244;2023-11-21T19:05:44;19.02;;;13.48;;
27869;SDS011;15225;50.730;4.244;2023-11-21T19:08:10;17.90;;;13.30;;
27869;SDS011;15225;50.730;4.244;2023-11-21T19:10:37;18.17;;;12.60;;
27869;SDS011;15225;50.730;4.244;2023-11-21T19:13:03;19.17;;;12.65;;
27869;SDS011;15225;50.730;4.244;2023-11-21T19:15:29;16.58;;;12.77;;
27869;SDS011;15225;50.730;4.244;2023-11-21T19:17:56;18.40;;;12.68;;
27869;SDS011;15225;50.730;4.244;2023-11-21T19:20:23;16.88;;;11.27;;
27869;SDS011;15225;50.730;4.244;2023-11-21T19:22:50;15.80;;;11.70;;
27869;SDS011;15225;50.730;4.244;2023-11-21T19:25:15;15.82;;;11.15;;
27869;SDS011;15225;50.730;4.244;2023-11-21T19:27:41;21.55;;;12.82;;
27869;SDS011;15225;50.730;4.244;2023-11-21T19:30:07;14.73;;;10.88;;
27869;SDS011;15225;50.730;4.244;2023-11-21T19:32:36;16.67;;;11.73;;
27869;SDS011;15225;50.730;4.244;2023-11-21T19:35:02;13.57;;;10.13;;
27869;SDS011;15225;50.730;4.244;2023-11-21T19:37:29;13.18;;;9.82;;
27869;SDS011;15225;50.730;4.244;2023-11-21T19:39:55;15.10;;;10.60;;
27869;SDS011;15225;50.730;4.244;2023-11-21T19:42:20;16.83;;;11.45;;
27869;SDS011;15225;50.730;4.244;2023-11-21T19:44:48;17.55;;;11.38;;
27869;SDS011;15225;50.730;4.244;2023-11-21T19:47:14;15.55;;;12.32;;
27869;SDS011;15225;50.730;4.244;2023-11-21T19:49:39;18.27;;;11.70;;
27869;SDS011;15225;50.730;4.244;2023-11-21T19:52:05;17.00;;;11.80;;
27869;SDS011;15225;50.730;4.244;2023-11-21T19:54:32;17.70;;;11.95;;
27869;SDS011;15225;50.730;4.244;2023-11-21T19:56:58;20.75;;;12.98;;
27869;SDS011;15225;50.730;4.244;2023-11-21T19:59:29;21.35;;;13.82;;
27869;SDS011;15225;50.730;4.244;2023-11-21T20:02:04;18.98;;;13.02;;
27869;SDS011;15225;50.730;4.244;2023-11-21T20:04:30;23.73;;;14.07;;
27869;SDS011;15225;50.730;4.244;2023-11-21T20:06:56;20.33;;;13.60;;
27869;SDS011;15225;50.730;4.244;2023-11-21T20:09:24;23.55;;;14.55;;
27869;SDS011;15225;50.730;4.244;2023-11-21T20:11:50;23.13;;;14.30;;
27869;SDS011;15225;50.730;4.244;2023-11-21T20:14:16;26.40;;;16.05;;
27869;SDS011;15225;50.730;4.244;2023-11-21T20:16:42;27.50;;;16.30;;
27869;SDS011;15225;50.730;4.244;2023-11-21T20:19:09;23.70;;;15.65;;
27869;SDS011;15225;50.730;4.244;2023-11-21T20:21:35;26.27;;;16.83;;
27869;SDS011;15225;50.730;4.244;2023-11-21T20:24:01;27.95;;;17.00;;
27869;SDS011;15225;50.730;4.244;2023-11-21T20:26:27;30.05;;;16.13;;
27869;SDS011;15225;50.730;4.244;2023-11-21T20:28:52;29.15;;;17.45;;
27869;SDS011;15225;50.730;4.244;2023-11-21T20:31:21;28.63;;;15.55;;
27869;SDS011;15225;50.730;4.244;2023-11-21T20:33:48;20.55;;;14.02;;
27869;SDS011;15225;50.730;4.244;2023-11-21T20:36:14;22.50;;;14.63;;
27869;SDS011;15225;50.730;4.244;2023-11-21T20:38:40;28.30;;;15.48;;
27869;SDS011;15225;50.730;4.244;2023-11-21T20:41:05;23.27;;;13.25;;
27869;SDS011;15225;50.730;4.244;2023-11-21T20:43:36;18.38;;;13.07;;
27869;SDS011;15225;50.730;4.244;2023-11-21T20:46:02;18.88;;;12.00;;
27869;SDS011;15225;50.730;4.244;2023-11-21T20:48:28;18.38;;;12.82;;
27869;SDS011;15225;50.730;4.244;2023-11-21T20:50:54;17.50;;;13.02;;
27869;SDS011;15225;50.730;4.244;2023-11-21T20:53:20;16.13;;;12.27;;
27869;SDS011;15225;50.730;4.244;2023-11-21T20:55:45;16.58;;;12.30;;
27869;SDS011;15225;50.730;4.244;2023-11-21T20:58:14;17.77;;;11.95;;
27869;SDS011;15225;50.730;4.244;2023-11-21T21:00:40;20.25;;;13.75;;
27869;SDS011;15225;50.730;4.244;2023-11-21T21:03:06;18.25;;;13.40;;
27869;SDS011;15225;50.730;4.244;2023-11-21T21:05:32;19.38;;;13.07;;
27869;SDS011;15225;50.730;4.244;2023-11-21T21:07:58;16.10;;;13.15;;
27869;SDS011;15225;50.730;4.244;2023-11-21T21:10:24;20.77;;;14.57;;
27869;SDS011;15225;50.730;4.244;2023-11-21T21:12:53;17.13;;;13.65;;
27869;SDS011;15225;50.730;4.244;2023-11-21T21:15:20;18.95;;;14.73;;
27869;SDS011;15225;50.730;4.244;2023-11-21T21:17:47;17.35;;;13.40;;
27869;SDS011;15225;50.730;4.244;2023-11-21T21:20:13;18.88;;;15.27;;
27869;SDS011;15225;50.730;4.244;2023-11-21T21:22:42;21.33;;;16.30;;
27869;SDS011;15225;50.730;4.244;2023-11-21T21:25:09;23.38;;;16.95;;
27869;SDS011;15225;50.730;4.244;2023-11-21T21:27:38;21.38;;;15.43;;
27869;SDS011;15225;50.730;4.244;2023-11-21T21:30:04;22.23;;;15.88;;
27869;SDS011;15225;50.730;4.244;2023-11-21T21:32:31;21.10;;;16.25;;
27869;SDS011;15225;50.730;4.244;2023-11-21T21:34:57;24.20;;;15.93;;
27869;SDS011;15225;50.730;4.244;2023-11-21T21:37:23;21.17;;;16.30;;
27869;SDS011;15225;50.730;4.244;2023-11-21T21:39:49;18.30;;;14.20;;
27869;SDS011;15225;50.730;4.244;2023-11-21T21:42:15;16.40;;;12.73;;
27869;SDS011;15225;50.730;4.244;2023-11-21T21:44:41;17.15;;;13.40;;
27869;SDS011;15225;50.730;4.244;2023-11-21T21:47:06;18.85;;;14.38;;
27869;SDS011;15225;50.730;4.244;2023-11-21T21:49:32;17.48;;;14.20;;
